Time;durP1;ratioP1;P1;durP2;ratioP2;P2;SDS_P1;SDS_P2;PMS_P1;PMS_P2;Temp;Humidity;BMP_temperature;BMP_pressure;BME280_temperature;BME280_humidity;BME280_pressure;Samples;Min_cycle;Max_cycle;Signal;HPM_P1;HPM_P2
2022/08/02 00:00:13;;;;;;;5.07;3.10;;;;;;;23.61;45.22;99683.13;5028056;28;20029;-28
2022/08/02 00:02:43;;;;;;;4.10;2.60;;;;;;;23.70;45.58;99681.22;5030346;28;20033;-36
2022/08/02 00:05:10;;;;;;;4.07;2.50;;;;;;;23.65;45.24;99674.00;5028973;28;20069;-31
2022/08/02 00:07:36;;;;;;;3.38;2.58;;;;;;;23.53;45.52;99676.50;5028742;28;20032;-29
2022/08/02 00:10:03;;;;;;;4.97;2.85;;;;;;;23.61;45.49;99680.38;5028305;28;20395;-29
2022/08/02 00:12:28;;;;;;;4.20;3.00;;;;;;;23.50;45.51;99674.44;5028599;28;20094;-29
2022/08/02 00:14:54;;;;;;;4.72;2.95;;;;;;;23.52;45.63;99685.00;5030233;28;20481;-33
2022/08/02 00:17:19;;;;;;;5.95;2.80;;;;;;;23.50;45.41;99688.03;5029311;28;20046;-28
2022/08/02 00:19:45;;;;;;;3.78;2.40;;;;;;;23.47;45.56;99683.22;5029736;28;20033;-28
2022/08/02 00:22:11;;;;;;;5.07;2.90;;;;;;;23.45;45.85;99685.44;5029876;28;20454;-36
2022/08/02 00:24:36;;;;;;;7.75;2.92;;;;;;;23.39;46.14;99692.16;5029731;28;20026;-29
2022/08/02 00:27:02;;;;;;;5.88;2.90;;;;;;;23.35;46.47;99689.25;5029374;28;20025;-31
2022/08/02 00:29:29;;;;;;;4.43;3.20;;;;;;;23.38;46.34;99685.91;5029670;28;20022;-28
2022/08/02 00:31:55;;;;;;;5.97;3.50;;;;;;;23.27;46.54;99690.00;5028287;28;20120;-28
2022/08/02 00:34:21;;;;;;;6.13;3.20;;;;;;;23.21;46.92;99692.09;5028325;28;20284;-27
2022/08/02 00:36:46;;;;;;;4.72;3.10;;;;;;;23.25;46.67;99687.63;5028175;28;20980;-38
2022/08/02 00:39:12;;;;;;;5.50;3.08;;;;;;;23.29;47.06;99695.94;5030030;28;20037;-30
2022/08/02 00:41:45;;;;;;;5.78;3.30;;;;;;;23.04;47.16;99686.53;5029464;28;20022;-31
2022/08/02 00:44:11;;;;;;;4.40;2.85;;;;;;;23.16;47.58;99692.19;5028242;28;20029;-28
2022/08/02 00:46:36;;;;;;;5.07;3.47;;;;;;;23.12;47.44;99688.50;5029713;28;20022;-28
2022/08/02 00:49:02;;;;;;;8.48;3.42;;;;;;;22.87;47.71;99671.69;5029410;28;20037;-28
2022/08/02 00:51:27;;;;;;;4.40;3.00;;;;;;;22.95;47.97;99693.81;5029678;28;20025;-32
2022/08/02 00:53:52;;;;;;;7.28;3.40;;;;;;;22.94;48.31;99700.34;5029099;28;20112;-29
2022/08/02 00:56:18;;;;;;;5.47;3.15;;;;;;;23.09;47.73;99694.56;5029179;28;20033;-29
2022/08/02 00:58:43;;;;;;;6.07;3.50;;;;;;;23.18;47.41;99686.47;5028658;28;20032;-28
2022/08/02 01:01:09;;;;;;;5.43;3.28;;;;;;;23.49;47.81;99696.53;5029163;28;20025;-28
2022/08/02 01:03:34;;;;;;;3.80;3.10;;;;;;;23.53;46.84;99698.28;5029101;28;20111;-36
2022/08/02 01:06:00;;;;;;;4.32;3.00;;;;;;;23.13;47.71;99676.53;5029029;28;20482;-28
2022/08/02 01:08:25;;;;;;;4.88;3.17;;;;;;;23.15;47.95;99704.22;5028805;28;20397;-31
2022/08/02 01:10:50;;;;;;;6.55;3.08;;;;;;;23.65;46.94;99684.88;5028290;28;20032;-28
2022/08/02 01:13:16;;;;;;;4.45;2.90;;;;;;;24.01;47.06;99696.72;5028769;28;20021;-28
2022/08/02 01:15:49;;;;;;;5.32;3.00;;;;;;;24.16;46.52;99679.09;5027441;28;20109;-27
2022/08/02 01:18:40;;;;;;;5.90;3.00;;;;;;;24.27;46.30;99699.44;5027112;28;20524;-31
2022/08/02 01:21:25;;;;;;;4.45;3.10;;;;;;;24.64;45.24;99708.13;5027346;28;20120;-29
2022/08/02 01:24:15;;;;;;;5.32;3.30;;;;;;;24.45;45.86;99706.50;5028173;28;20743;-33
2022/08/02 01:27:08;;;;;;;3.67;3.00;;;;;;;24.31;46.17;99689.50;5027013;28;20092;-30
2022/08/02 01:29:38;;;;;;;4.95;3.03;;;;;;;24.43;46.08;99707.97;5028096;28;20029;-28
2022/08/02 01:32:15;;;;;;;4.90;3.15;;;;;;;24.40;45.83;99708.63;5027146;28;20100;-29
2022/08/02 01:34:49;;;;;;;4.25;3.13;;;;;;;24.21;46.63;99696.09;5026827;28;20180;-30
2022/08/02 01:37:20;;;;;;;7.47;3.13;;;;;;;23.59;47.65;99705.19;5027219;28;20040;-28
2022/08/02 01:39:53;;;;;;;4.35;3.38;;;;;;;23.14;48.88;99697.16;5026767;28;20056;-31
2022/08/02 01:42:20;;;;;;;4.70;3.25;;;;;;;23.36;48.98;99688.13;5026670;28;20026;-28
2022/08/02 01:44:48;;;;;;;4.43;3.10;;;;;;;23.49;48.40;99674.75;5026687;28;20042;-28
2022/08/02 01:47:18;;;;;;;4.80;3.53;;;;;;;23.66;48.96;99697.38;5026961;28;20095;-30
2022/08/02 01:49:47;;;;;;;4.45;3.28;;;;;;;23.79;48.48;99700.34;5027100;28;20128;-28
2022/08/02 01:52:24;;;;;;;5.25;3.72;;;;;;;23.48;48.49;99673.94;5026918;28;20033;-30
2022/08/02 01:54:56;;;;;;;4.03;2.90;;;;;;;23.24;49.25;99682.47;5027901;28;20036;-28
2022/08/02 01:57:25;;;;;;;5.03;3.10;;;;;;;23.29;49.15;99678.81;5026754;28;20120;-29
2022/08/02 01:59:54;;;;;;;5.63;3.90;;;;;;;23.34;48.73;99679.50;5027945;28;20504;-30
2022/08/02 02:02:22;;;;;;;5.97;3.00;;;;;;;23.43;48.83;99671.34;5026580;28;20021;-28
2022/08/02 02:04:50;;;;;;;4.47;3.40;;;;;;;23.56;48.23;99683.25;5025853;28;20064;-30
2022/08/02 02:07:17;;;;;;;4.28;2.97;;;;;;;23.66;48.00;99683.78;5026491;28;20424;-31
2022/08/02 02:09:44;;;;;;;5.88;3.40;;;;;;;23.65;48.03;99681.38;5026483;28;20036;-29
2022/08/02 02:12:11;;;;;;;4.82;3.38;;;;;;;23.94;47.61;99682.75;5026812;28;20041;-28
2022/08/02 02:14:38;;;;;;;6.07;3.72;;;;;;;23.63;48.18;99665.34;5026431;28;20142;-29
2022/08/02 02:17:05;;;;;;;5.20;3.28;;;;;;;23.85;47.94;99678.09;5026174;28;20048;-29
2022/08/02 02:19:33;;;;;;;4.45;3.17;;;;;;;23.90;47.58;99684.50;5027695;28;20053;-29
2022/08/02 02:21:58;;;;;;;4.50;3.50;;;;;;;24.08;47.40;99685.34;5027574;28;20041;-34
2022/08/02 02:24:24;;;;;;;5.70;3.83;;;;;;;23.80;47.49;99677.44;5027910;28;20159;-28
2022/08/02 02:26:50;;;;;;;6.97;3.70;;;;;;;23.85;48.10;99688.19;5027306;28;20044;-30
2022/08/02 02:29:17;;;;;;;7.80;3.65;;;;;;;23.72;47.50;99692.59;5026310;28;20120;-28
2022/08/02 02:31:46;;;;;;;9.77;4.20;;;;;;;23.57;47.53;99680.22;5009449;28;20045;-27
2022/08/02 02:34:21;;;;;;;7.38;4.13;;;;;;;22.89;49.89;99679.53;5023159;28;20041;-29
2022/08/02 02:36:49;;;;;;;9.25;3.97;;;;;;;23.12;49.62;99687.69;5028234;28;20033;-29
2022/08/02 02:39:19;;;;;;;7.13;3.58;;;;;;;22.90;49.40;99664.81;5030315;28;20022;-30
2022/08/02 02:41:46;;;;;;;7.13;3.65;;;;;;;22.98;50.74;99699.41;5030258;28;20026;-30
2022/08/02 02:44:15;;;;;;;4.38;3.03;;;;;;;23.17;49.71;99695.72;5030323;28;20452;-28
2022/08/02 02:46:43;;;;;;;8.98;3.80;;;;;;;23.32;50.13;99680.94;5031069;28;20701;-28
2022/08/02 02:49:10;;;;;;;7.25;3.63;;;;;;;23.18;49.64;99673.66;5031612;28;20026;-34
2022/08/02 02:51:39;;;;;;;7.80;4.10;;;;;;;23.58;48.60;99689.16;5030249;28;20045;-28
2022/08/02 02:54:06;;;;;;;7.32;3.65;;;;;;;23.01;50.41;99687.13;5031262;28;20022;-28
2022/08/02 02:56:32;;;;;;;5.57;3.15;;;;;;;22.43;51.17;99678.75;5013417;28;20033;-28
2022/08/02 02:58:59;;;;;;;5.28;3.03;;;;;;;22.59;50.31;99684.59;5029637;28;20033;-31
2022/08/02 03:01:29;;;;;;;5.90;3.43;;;;;;;22.81;50.83;99694.69;5029751;28;20061;-28
2022/08/02 03:03:58;;;;;;;6.45;3.22;;;;;;;23.31;49.31;99682.03;5031083;28;20835;-28
2022/08/02 03:06:24;;;;;;;10.95;3.60;;;;;;;22.34;51.18;99699.59;5029991;28;20551;-28
2022/08/02 03:08:50;;;;;;;13.15;4.05;;;;;;;21.93;51.87;99680.66;5030493;28;20041;-30
2022/08/02 03:11:17;;;;;;;18.20;4.22;;;;;;;21.95;51.35;99679.22;5010072;28;20050;-28
2022/08/02 03:13:43;;;;;;;10.40;3.80;;;;;;;22.47;52.45;99700.66;5027078;28;20123;-33
2022/08/02 03:16:10;;;;;;;10.43;3.25;;;;;;;22.52;52.04;99708.69;5031147;28;20481;-32
2022/08/02 03:18:41;;;;;;;8.52;3.40;;;;;;;22.02;51.36;99705.97;5029282;28;20064;-30
2022/08/02 03:21:11;;;;;;;9.35;3.50;;;;;;;21.62;52.21;99703.78;5031091;28;20490;-31
2022/08/02 03:23:38;;;;;;;8.25;3.38;;;;;;;21.22;53.55;99695.25;5029343;28;20061;-30
2022/08/02 03:26:04;;;;;;;11.80;4.25;;;;;;;21.09;53.58;99706.91;5029423;28;20029;-30
2022/08/02 03:28:30;;;;;;;7.60;3.90;;;;;;;20.80;54.16;99710.63;5028709;28;20044;-27
2022/08/02 03:30:56;;;;;;;7.78;4.00;;;;;;;20.55;55.01;99713.69;5028574;28;20037;-29
2022/08/02 03:33:23;;;;;;;6.70;3.90;;;;;;;20.42;56.46;99720.66;5027651;28;20030;-29
2022/08/02 03:35:51;;;;;;;4.93;3.50;;;;;;;20.30;58.26;99723.00;5027494;28;20036;-30
2022/08/02 03:38:17;;;;;;;;;;;;;;;20.50;56.48;99719.19;5028385;28;20076;-28
2022/08/02 03:40:44;;;;;;;10.63;3.90;;;;;;;20.58;56.39;99702.28;5028704;28;19918;-29
2022/08/02 03:43:10;;;;;;;11.77;3.75;;;;;;;21.46;54.31;99719.53;5029035;28;20029;-30
2022/08/02 03:45:38;;;;;;;5.70;3.25;;;;;;;21.40;54.22;99698.22;5029342;28;20068;-28
2022/08/02 03:48:04;;;;;;;;;;;;;;;21.52;54.12;99720.25;5029213;28;20118;-29
2022/08/02 03:50:31;;;;;;;5.57;3.00;;;;;;;21.12;54.13;99727.97;5030118;28;19952;-29
2022/08/02 03:52:58;;;;;;;9.25;3.80;;;;;;;20.98;55.73;99732.56;5028854;28;20481;-29
2022/08/02 03:55:24;;;;;;;5.50;3.38;;;;;;;20.84;55.21;99713.53;5030729;28;20040;-29
2022/08/02 03:57:50;;;;;;;5.22;3.15;;;;;;;20.93;55.55;99724.53;5029930;28;20496;-30
2022/08/02 04:00:21;;;;;;;9.07;3.42;;;;;;;20.41;56.74;99729.84;5030210;28;20026;-28
2022/08/02 04:02:47;;;;;;;8.95;3.60;;;;;;;20.13;57.30;99720.78;5028338;28;20037;-28
2022/08/02 04:05:13;;;;;;;7.32;3.53;;;;;;;20.17;57.95;99735.34;5030174;28;20033;-30
2022/08/02 04:07:38;;;;;;;10.05;3.40;;;;;;;20.30;57.80;99745.44;5028625;28;20025;-27
2022/08/02 04:10:05;;;;;;;5.60;2.95;;;;;;;21.18;55.82;99736.84;5029908;28;20025;-28
2022/08/02 04:12:30;;;;;;;14.93;3.60;;;;;;;21.36;54.65;99727.03;5028653;28;20041;-28
2022/08/02 04:14:57;;;;;;;7.10;3.30;;;;;;;21.20;55.38;99746.28;5029996;28;20080;-28
2022/08/02 04:17:23;;;;;;;6.97;3.03;;;;;;;21.18;55.47;99742.25;5028512;28;20057;-31
2022/08/02 04:20:01;;;;;;;5.82;3.40;;;;;;;20.80;56.73;99748.56;5029844;28;20029;-28
2022/08/02 04:22:53;;;;;;;4.78;3.20;;;;;;;20.75;57.20;99745.13;5028435;28;20037;-28
2022/08/02 04:25:19;;;;;;;4.70;3.05;;;;;;;20.98;55.52;99737.97;5029401;28;20038;-29
2022/08/02 04:27:46;;;;;;;5.00;3.40;;;;;;;21.51;54.91;99753.91;5028374;28;20263;-32
2022/08/02 04:30:12;;;;;;;7.13;3.42;;;;;;;21.44;54.87;99745.38;5029630;28;20032;-34
2022/08/02 04:32:38;;;;;;;4.70;3.20;;;;;;;21.70;54.81;99753.03;5028122;28;20532;-30
2022/08/02 04:35:06;;;;;;;5.13;3.53;;;;;;;21.57;54.58;99754.63;5029340;28;20108;-28
2022/08/02 04:37:33;;;;;;;4.88;3.67;;;;;;;21.61;54.17;99737.44;5028306;28;20122;-28
2022/08/02 04:39:59;;;;;;;6.30;3.20;;;;;;;21.75;54.11;99750.22;5029757;28;20036;-33
2022/08/02 04:42:25;;;;;;;5.68;3.65;;;;;;;22.01;54.18;99750.53;5029772;28;20402;-27
2022/08/02 04:44:52;;;;;;;6.28;2.97;;;;;;;22.07;54.10;99763.69;5027748;28;20116;-31
2022/08/02 04:47:19;;;;;;;4.15;3.00;;;;;;;22.27;53.00;99750.81;5028250;28;20033;-28
2022/08/02 04:49:45;;;;;;;5.60;2.60;;;;;;;22.06;53.42;99744.97;5027689;28;20025;-29
2022/08/02 04:52:11;;;;;;;5.97;2.80;;;;;;;22.37;52.30;99766.91;5027897;28;20076;-32
2022/08/02 04:54:36;;;;;;;4.93;2.90;;;;;;;22.65;51.47;99755.97;5028988;28;20068;-28
2022/08/02 04:57:53;;;;;;;4.45;3.05;;;;;;;22.46;51.58;99748.78;5028749;28;20133;-28
2022/08/02 04:59:47;;;;;;;4.10;2.70;;;;;;;22.41;52.23;99762.47;5028280;28;20374;-28
2022/08/02 05:02:13;;;;;;;5.50;2.50;;;;;;;22.43;51.33;99735.81;5028877;28;20500;-29
2022/08/02 05:04:38;;;;;;;4.95;2.75;;;;;;;22.52;50.88;99767.69;5029071;28;20112;-32
2022/08/02 05:07:04;;;;;;;4.70;3.17;;;;;;;22.57;50.70;99764.84;5028924;28;20096;-29
2022/08/02 05:09:29;;;;;;;2.95;2.22;;;;;;;22.73;50.67;99766.09;5029292;28;20032;-31
2022/08/02 05:11:54;;;;;;;3.97;2.60;;;;;;;22.66;50.63;99757.59;5028883;28;20033;-28
2022/08/02 05:14:20;;;;;;;5.32;2.70;;;;;;;22.69;51.21;99759.66;5028887;28;20040;-28
2022/08/02 05:16:45;;;;;;;5.47;2.90;;;;;;;22.74;50.97;99766.91;5010322;28;20041;-28
2022/08/02 05:19:11;;;;;;;5.93;2.60;;;;;;;22.83;50.42;99765.88;5029212;28;20040;-33
2022/08/02 05:21:36;;;;;;;5.53;2.85;;;;;;;22.71;50.69;99760.16;5028617;28;20041;-28
2022/08/02 05:24:02;;;;;;;8.05;2.70;;;;;;;22.73;49.63;99766.09;5027153;28;20032;-29
2022/08/02 05:26:27;;;;;;;4.72;2.45;;;;;;;22.69;50.53;99753.44;5028364;28;20060;-28
2022/08/02 05:28:52;;;;;;;7.03;2.97;;;;;;;22.79;50.47;99761.34;5028273;28;20101;-28
2022/08/02 05:31:18;;;;;;;6.00;2.85;;;;;;;22.74;49.73;99745.16;5028125;28;20025;-28
2022/08/02 05:33:44;;;;;;;5.05;2.90;;;;;;;23.05;49.66;99769.75;5028463;28;20029;-28
2022/08/02 05:36:09;;;;;;;7.00;2.63;;;;;;;22.94;48.57;99744.66;5028593;28;20044;-29
2022/08/02 05:38:36;;;;;;;6.40;2.90;;;;;;;23.18;48.79;99771.56;5028381;28;20028;-28
2022/08/02 05:41:01;;;;;;;4.70;2.88;;;;;;;23.20;49.24;99771.28;5027033;28;20107;-28
2022/08/02 05:43:26;;;;;;;5.20;2.60;;;;;;;23.36;48.92;99768.97;5028348;28;20037;-34
2022/08/02 05:45:52;;;;;;;6.60;3.10;;;;;;;23.31;47.92;99744.59;5028239;28;20100;-32
2022/08/02 05:48:18;;;;;;;5.40;3.17;;;;;;;23.41;48.04;99771.56;5028322;28;20025;-29
2022/08/02 05:50:47;;;;;;;6.22;3.05;;;;;;;23.50;47.86;99758.81;5028146;28;20561;-27
2022/08/02 05:53:34;;;;;;;7.28;3.42;;;;;;;23.61;48.19;99781.91;5028028;28;20141;-27
2022/08/02 05:56:17;;;;;;;8.00;2.87;;;;;;;23.81;46.86;99777.84;5028298;28;20429;-30
2022/08/02 05:59:15;;;;;;;4.97;2.83;;;;;;;23.80;46.69;99757.22;5027863;28;20413;-31
2022/08/02 06:01:42;;;;;;;4.13;2.90;;;;;;;24.02;46.60;99764.47;5018992;28;20042;-30
2022/08/02 06:04:12;;;;;;;5.57;2.90;;;;;;;24.16;46.73;99782.63;5028064;28;20559;-28
2022/08/02 06:06:42;;;;;;;5.82;2.70;;;;;;;24.12;46.62;99768.03;5027846;28;20044;-29
2022/08/02 06:09:13;;;;;;;5.03;2.63;;;;;;;24.53;46.37;99791.38;5026721;28;20029;-28
2022/08/02 06:11:44;;;;;;;7.93;2.88;;;;;;;24.50;45.52;99783.81;5026736;28;20414;-28
2022/08/02 06:14:12;;;;;;;3.75;2.60;;;;;;;24.50;44.96;99794.72;5026399;28;20036;-29
2022/08/02 06:16:38;;;;;;;4.68;2.75;;;;;;;24.55;45.75;99794.59;5027993;28;20033;-29
2022/08/02 06:19:05;;;;;;;3.40;2.60;;;;;;;24.59;44.51;99798.28;5026192;28;20033;-30
2022/08/02 06:21:31;;;;;;;20.02;12.43;;;;;;;24.58;46.29;99797.50;5026528;28;20045;-30
2022/08/02 06:23:57;;;;;;;6.03;3.70;;;;;;;24.93;44.33;99810.31;5026402;28;20045;-29
2022/08/02 06:26:24;;;;;;;5.43;3.25;;;;;;;24.96;44.72;99807.75;5026715;28;20037;-32
2022/08/02 06:28:52;;;;;;;16.73;10.05;;;;;;;25.02;44.38;99822.03;5026261;28;20075;-28
2022/08/02 06:31:18;;;;;;;4.93;2.70;;;;;;;25.11;44.41;99819.28;5026346;28;20026;-28
2022/08/02 06:33:43;;;;;;;4.20;2.75;;;;;;;24.97;43.78;99803.91;5026178;28;20037;-29
2022/08/02 06:36:35;;;;;;;5.07;2.70;;;;;;;25.35;44.49;99813.38;5027810;28;20036;-29
2022/08/02 06:39:05;;;;;;;4.15;2.45;;;;;;;25.44;43.02;99809.50;5027480;28;20041;-28
2022/08/02 06:41:39;;;;;;;5.53;2.70;;;;;;;25.50;43.91;99807.41;5026528;28;20044;-31
2022/08/02 12:32:02;;;;;;;6.07;1.50;;;;;;;34.42;25.30;99694.06;5146783;27;20373;-29
2022/08/02 12:34:29;;;;;;;7.40;1.48;;;;;;;34.57;26.38;99677.50;5107799;28;20035;-33
2022/08/02 12:37:07;;;;;;;3.60;1.17;;;;;;;34.57;25.41;99686.63;5107511;28;20031;-33
2022/08/02 12:39:34;;;;;;;15.00;2.47;;;;;;;34.43;26.33;99689.34;5107521;28;20042;-33
2022/08/02 12:41:59;;;;;;;2.10;1.48;;;;;;;34.17;27.43;99669.06;5125844;28;20440;-33
2022/08/02 12:44:25;;;;;;;1.85;1.23;;;;;;;34.15;26.63;99676.97;5125546;28;20515;-33
2022/08/02 12:47:02;;;;;;;2.88;1.17;;;;;;;34.39;26.82;99658.88;5107516;28;20165;-29
2022/08/02 12:49:28;;;;;;;1.60;1.20;;;;;;;35.03;25.76;99673.28;5107363;28;20508;-34
2022/08/02 12:51:53;;;;;;;1.38;0.90;;;;;;;35.77;25.88;99682.78;5125743;28;20051;-31
2022/08/02 12:54:27;;;;;;;1.70;1.30;;;;;;;35.35;25.75;99687.97;5125456;28;20088;-29
2022/08/02 12:56:53;;;;;;;3.83;1.40;;;;;;;34.11;25.69;99667.81;5125548;28;20723;-29
2022/08/02 12:59:36;;;;;;;2.38;1.38;;;;;;;34.18;26.49;99680.94;5125091;28;20036;-31
2022/08/02 13:02:07;;;;;;;2.25;1.45;;;;;;;34.17;26.67;99679.34;5107130;28;20080;-29
2022/08/02 13:04:33;;;;;;;2.90;1.30;;;;;;;34.01;26.18;99685.97;5125477;28;20561;-29
2022/08/02 13:06:59;;;;;;;6.00;1.60;;;;;;;34.40;26.94;99687.34;5106723;28;20080;-31
2022/08/02 13:09:25;;;;;;;1.75;1.10;;;;;;;33.94;26.72;99674.06;5106667;28;20061;-29
2022/08/02 13:11:50;;;;;;;5.10;2.00;;;;;;;34.06;26.10;99670.16;5125511;28;20023;-29
2022/08/02 13:14:16;;;;;;;6.78;3.08;;;;;;;34.95;25.16;99678.81;5125326;28;20061;-31
2022/08/02 13:16:43;;;;;;;5.63;2.60;;;;;;;35.17;25.28;99699.06;5125258;28;20034;-28
2022/08/02 13:19:09;;;;;;;4.82;2.42;;;;;;;35.24;24.51;99683.59;5106453;28;20098;-32
2022/08/02 13:21:35;;;;;;;6.03;3.15;;;;;;;35.76;23.85;99681.22;5106628;28;20051;-29
2022/08/02 13:24:00;;;;;;;3.50;1.35;;;;;;;36.18;24.44;99696.19;5125163;28;20563;-29
2022/08/02 13:26:26;;;;;;;3.08;1.20;;;;;;;36.29;23.95;99691.38;5124630;27;20026;-32
2022/08/02 13:28:52;;;;;;;2.83;1.20;;;;;;;36.44;23.26;99680.22;5106460;28;20510;-28
2022/08/02 13:31:17;;;;;;;2.42;1.17;;;;;;;36.27;25.14;99679.91;5085425;28;20590;-29
2022/08/02 13:33:43;;;;;;;2.15;1.27;;;;;;;36.19;24.15;99681.91;5104333;28;20028;-33
2022/08/02 13:36:08;;;;;;;3.08;1.30;;;;;;;35.91;23.43;99693.84;5085833;28;20024;-30
2022/08/02 13:38:34;;;;;;;1.77;1.20;;;;;;;35.55;24.11;99693.09;5103924;28;20522;-30
2022/08/02 13:41:08;;;;;;;1.65;1.30;;;;;;;35.63;23.23;99682.78;5103848;28;20055;-36
2022/08/02 13:43:34;;;;;;;2.85;1.80;;;;;;;35.49;24.45;99684.41;5090012;28;20035;-29
2022/08/02 13:46:00;;;;;;;1.70;1.23;;;;;;;36.19;23.38;99681.91;5072297;28;20024;-30
2022/08/02 13:48:25;;;;;;;2.45;1.40;;;;;;;35.90;24.18;99692.28;5072342;28;20028;-28
2022/08/02 13:50:51;;;;;;;1.20;1.10;;;;;;;35.11;25.29;99675.66;5090138;28;20056;-30
2022/08/02 13:53:16;;;;;;;3.13;1.10;;;;;;;34.81;24.97;99685.09;5071586;28;20056;-29
2022/08/02 13:55:42;;;;;;;2.75;1.20;;;;;;;34.33;25.68;99688.13;5071955;28;20032;-29
2022/08/02 13:58:08;;;;;;;4.13;1.60;;;;;;;34.27;26.34;99678.59;5090241;28;20391;-28
2022/08/02 14:00:34;;;;;;;2.40;1.20;;;;;;;34.71;25.65;99680.34;5090225;28;20032;-30
2022/08/02 14:02:59;;;;;;;2.10;1.00;;;;;;;34.65;24.90;99654.22;5071654;28;20043;-31
2022/08/02 14:05:29;;;;;;;1.73;1.10;;;;;;;35.05;26.13;99688.31;5090024;28;20039;-31
2022/08/02 14:07:58;;;;;;;4.18;1.25;;;;;;;34.91;25.21;99683.56;5071388;28;20392;-31
2022/08/02 14:10:25;;;;;;;7.68;2.28;;;;;;;34.24;25.75;99684.13;5071800;28;20036;-31
2022/08/02 14:12:54;;;;;;;5.82;1.40;;;;;;;34.05;25.51;99676.91;5071828;28;20558;-31
2022/08/02 14:15:19;;;;;;;5.15;2.00;;;;;;;33.79;26.34;99682.28;5071302;28;20036;-30
2022/08/02 14:17:45;;;;;;;4.07;1.80;;;;;;;33.63;26.39;99690.06;5071768;28;20039;-28
2022/08/02 14:20:11;;;;;;;9.75;3.38;;;;;;;33.69;26.26;99683.00;5089650;28;20039;-34
2022/08/02 14:22:37;;;;;;;4.88;1.90;;;;;;;33.82;26.44;99687.03;5071498;28;20024;-28
2022/08/02 14:25:04;;;;;;;7.40;3.08;;;;;;;33.57;26.24;99686.84;5089355;28;20399;-28
2022/08/02 14:27:30;;;;;;;17.05;7.88;;;;;;;33.71;27.15;99691.69;5071215;28;20486;-30
2022/08/02 14:29:56;;;;;;;7.07;2.22;;;;;;;34.30;25.78;99683.34;5089063;28;20059;-35
2022/08/02 14:32:22;;;;;;;4.33;1.90;;;;;;;35.11;25.57;99680.41;5071188;28;20525;-28
2022/08/02 14:34:47;;;;;;;3.47;1.73;;;;;;;35.62;23.86;99682.00;5089261;28;20107;-29
2022/08/02 14:37:13;;;;;;;6.90;2.20;;;;;;;34.70;25.51;99684.31;5088769;28;20102;-28
2022/08/02 14:39:38;;;;;;;4.78;1.67;;;;;;;34.87;25.24;99676.44;5089531;28;20024;-28
2022/08/02 14:42:04;;;;;;;4.28;1.65;;;;;;;34.99;25.59;99676.81;5088928;28;20461;-28
2022/08/02 14:44:29;;;;;;;6.15;1.90;;;;;;;34.37;25.48;99693.69;5089384;28;20034;-30
2022/08/02 14:46:55;;;;;;;4.03;1.60;;;;;;;34.17;26.53;99693.19;5089078;28;20035;-28
2022/08/02 14:49:21;;;;;;;4.95;1.42;;;;;;;34.09;25.82;99689.56;5088904;28;20031;-31
2022/08/02 14:51:46;;;;;;;4.47;1.30;;;;;;;34.25;25.66;99680.97;5088697;28;20032;-32
2022/08/02 14:54:12;;;;;;;3.50;1.50;;;;;;;34.58;24.92;99676.34;5088147;28;20024;-29
2022/08/02 14:56:37;;;;;;;10.35;2.42;;;;;;;34.64;25.46;99676.75;5070507;28;20028;-28
2022/08/02 14:59:03;;;;;;;8.55;1.80;;;;;;;35.34;24.55;99682.81;5088567;28;20028;-33
2022/08/02 15:01:30;;;;;;;3.42;1.25;;;;;;;36.00;23.45;99688.69;5088786;28;20058;-28
2022/08/02 15:03:55;;;;;;;2.75;1.10;;;;;;;36.61;24.15;99677.31;5070251;28;20032;-31
2022/08/02 15:06:21;;;;;;;3.85;1.73;;;;;;;37.47;22.00;99694.63;5088744;28;20036;-35
2022/08/02 15:08:47;;;;;;;2.20;1.00;;;;;;;38.18;20.38;99693.13;5088608;28;20028;-34
2022/08/02 15:11:12;;;;;;;3.28;1.35;;;;;;;37.87;20.99;99686.72;5088578;28;20459;-28
2022/08/02 15:13:38;;;;;;;4.18;1.30;;;;;;;36.69;22.70;99685.66;5088825;28;20395;-32
2022/08/02 15:16:04;;;;;;;1.50;1.25;;;;;;;35.95;23.76;99683.53;5088435;28;20445;-29
2022/08/02 15:18:29;;;;;;;3.25;1.17;;;;;;;37.34;22.46;99677.66;5088316;28;20024;-30
2022/08/02 15:20:55;;;;;;;1.65;1.10;;;;;;;38.55;19.98;99685.91;5088052;28;20036;-29
2022/08/02 15:23:21;;;;;;;1.92;1.20;;;;;;;39.21;20.87;99684.53;5070023;28;20089;-28
2022/08/02 15:25:46;;;;;;;2.38;1.15;;;;;;;39.48;20.04;99692.09;5087953;28;20101;-32
2022/08/02 15:28:11;;;;;;;2.63;1.00;;;;;;;40.29;18.94;99688.91;5088085;28;20074;-33
2022/08/02 15:30:38;;;;;;;2.85;1.40;;;;;;;40.91;17.54;99685.63;5087861;28;20515;-33
2022/08/02 15:33:04;;;;;;;2.65;1.10;;;;;;;40.87;18.07;99688.50;5052978;28;20031;-28
2022/08/02 15:35:29;;;;;;;1.63;1.07;;;;;;;40.74;17.79;99690.38;5069430;28;20040;-28
2022/08/02 15:37:55;;;;;;;1.73;1.20;;;;;;;41.13;18.01;99683.88;5088412;28;20269;-36
2022/08/02 15:40:21;;;;;;;2.03;1.10;;;;;;;41.27;17.74;99696.72;5087924;28;20024;-29
2022/08/02 15:42:47;;;;;;;2.22;1.30;;;;;;;40.58;18.65;99699.50;5069554;28;20020;-28
2022/08/02 15:45:12;;;;;;;3.57;1.30;;;;;;;38.23;20.94;99694.66;5087846;28;20036;-30
2022/08/02 15:47:38;;;;;;;3.83;1.07;;;;;;;37.07;22.29;99694.91;5087661;28;20055;-28
2022/08/02 15:50:04;;;;;;;2.92;1.27;;;;;;;35.64;23.88;99689.94;5087667;28;20475;-28
2022/08/02 15:52:29;;;;;;;2.25;1.20;;;;;;;34.79;24.48;99681.94;5069567;28;20038;-27
2022/08/02 15:54:55;;;;;;;3.47;1.38;;;;;;;34.56;24.80;99676.72;5087827;28;20024;-28
2022/08/02 15:57:21;;;;;;;8.02;1.20;;;;;;;34.37;25.17;99683.41;5069477;28;20039;-28
2022/08/02 15:59:46;;;;;;;3.35;1.45;;;;;;;34.09;25.38;99691.53;5087509;28;20024;-30
2022/08/02 16:02:13;;;;;;;3.85;1.05;;;;;;;33.95;25.50;99697.78;5087484;28;20567;-29
2022/08/02 16:04:38;;;;;;;6.35;1.60;;;;;;;33.69;25.96;99676.69;5068750;28;20024;-30
2022/08/02 16:07:04;;;;;;;2.45;1.20;;;;;;;33.60;26.40;99694.38;5087388;28;20117;-27
2022/08/02 16:09:30;;;;;;;3.13;1.45;;;;;;;33.57;26.77;99692.38;5087414;28;20020;-28
2022/08/02 16:11:55;;;;;;;4.47;1.60;;;;;;;33.50;26.40;99691.53;5087470;28;20032;-30
2022/08/02 16:14:21;;;;;;;12.43;3.20;;;;;;;33.82;26.22;99673.22;5087275;28;20604;-34
2022/08/02 16:16:47;;;;;;;4.78;2.28;;;;;;;35.21;24.68;99685.19;5087295;28;20028;-30
2022/08/02 16:19:12;;;;;;;4.97;1.73;;;;;;;36.88;22.72;99695.44;5086717;28;20024;-29
2022/08/02 16:21:38;;;;;;;2.40;1.35;;;;;;;36.51;22.64;99703.16;5069294;28;20055;-32
2022/08/02 16:24:03;;;;;;;5.07;1.40;;;;;;;35.90;24.21;99700.59;5069273;28;20120;-32
2022/08/02 16:26:30;;;;;;;6.65;1.48;;;;;;;35.47;24.86;99706.19;5087187;28;20020;-32
2022/08/02 16:28:56;;;;;;;3.75;1.52;;;;;;;37.02;22.75;99700.13;5068755;28;20016;-28
2022/08/02 16:31:22;;;;;;;2.97;1.40;;;;;;;38.05;20.67;99708.78;5087003;28;20570;-37
2022/08/02 16:33:48;;;;;;;13.63;9.25;;;;;;;38.21;21.17;99714.59;5086996;28;20122;-30
2022/08/02 16:36:14;;;;;;;16.40;5.72;;;;;;;37.34;22.62;99708.25;5068978;28;20020;-28
2022/08/02 16:38:40;;;;;;;18.27;3.33;;;;;;;37.57;22.55;99710.41;5087520;28;20071;-28
2022/08/02 16:41:06;;;;;;;9.63;2.47;;;;;;;37.80;22.88;99718.16;5086874;28;20039;-29
2022/08/02 16:43:32;;;;;;;11.68;3.10;;;;;;;39.28;20.88;99722.69;5068713;28;20029;-31
2022/08/02 16:45:59;;;;;;;7.85;2.60;;;;;;;39.60;20.14;99715.78;5068676;28;20032;-30
2022/08/02 16:48:24;;;;;;;6.28;1.80;;;;;;;39.71;19.72;99719.19;5086589;28;20036;-28
2022/08/02 16:50:50;;;;;;;4.10;1.90;;;;;;;38.15;21.44;99713.47;5087277;28;20078;-28
2022/08/02 16:53:15;;;;;;;7.00;1.90;;;;;;;37.31;23.07;99729.31;5068339;28;20097;-28
2022/08/02 16:55:41;;;;;;;9.27;1.93;;;;;;;35.67;24.62;99711.34;5087236;28;20110;-28
2022/08/02 16:58:07;;;;;;;6.03;2.00;;;;;;;34.89;25.06;99712.84;5068643;28;20059;-28
2022/08/02 17:00:32;;;;;;;3.50;1.70;;;;;;;34.28;25.58;99713.38;5086878;28;20560;-33
2022/08/02 17:03:02;;;;;;;6.15;2.10;;;;;;;33.73;26.91;99724.50;5067993;28;20587;-33
2022/08/02 17:05:29;;;;;;;9.18;1.77;;;;;;;33.00;27.23;99713.97;5087042;28;20055;-30
2022/08/02 17:07:56;;;;;;;;;;;;;;;32.54;28.20;99736.31;5069379;28;20016;-27
2022/08/02 17:10:21;;;;;;;;;;;;;;;32.38;28.62;99733.72;5068999;28;19991;-27
2022/08/02 17:12:47;;;;;;;6.40;1.60;;;;;;;32.28;28.88;99731.63;5086929;28;20007;-36
2022/08/02 17:15:12;;;;;;;5.45;1.77;;;;;;;32.14;28.87;99738.56;5086437;28;20056;-29
2022/08/02 17:17:38;;;;;;;7.35;1.77;;;;;;;31.78;29.29;99723.41;5088795;28;20035;-29
2022/08/02 17:20:04;;;;;;;9.15;2.47;;;;;;;31.67;29.90;99728.78;5090811;28;20024;-30
2022/08/02 17:22:30;;;;;;;8.02;2.28;;;;;;;31.42;29.95;99742.09;5072299;28;20491;-34